KDEH

Details ICAO KDEH
Name DECORAH MUNI
Region United States
Timezone America/Chicago (UTC-5.0)
Plans Departing 1
Arriving 6
Stats Elevation 1,157 ft / 353 m (AMSL)
Location 43.275509° -91.739373°
Runways 1
Magnetic Variation 0.870° W
Sunrise 2018-05-22 10:37:45 UTC / 2018-05-22 05:37:45 Local
Sunset 2018-05-23 01:32:23 UTC / 2018-05-22 20:32:23 Local
Advertisement - Login to hide

Runways

ID Width Length Bearing (true) Bearing (mag) Surface Threshold Offset Overrun Length
11 75 ft / 23 m 3,994 ft / 1,217 m 114.74° 115.61° Concrete 0 ft / 0 m 0 ft / 0 m
29 75 ft / 23 m 3,994 ft / 1,217 m 294.75° 295.62° Concrete 0 ft / 0 m 0 ft / 0 m

Map

Weather


0- 5 10 15 20 25 30 35+ Temperature / ° C

Clouds and Precipitation
Forecast for 2018-05-22 18:00 UTC. Updated 5 hours ago

Ground ~20,000 ft ~40,000 ft Winds

METAR

KDEH 222135Z AUTO 00000KT 10SM BKN025 BKN030 20/15 A3005 RMK AO2

TAF

Not found

Frequencies

Recorded 120.92 MHz AWOS 3
Unicom 122.80 MHz CTAF/UNICOM
Warning: Do not use this data for real-world aviation or navigation. No guarantee of current accuracy is given.